Capitol Logistics 444


KRFD
Chicago/Rockford International Airport
Rockford, Illinois, US
KPDX
Portland International Airport
Portland, Oregon, US

Activity Log

Date Flight Route Aircraft Duration
09/09/2019 CPX444 DBQ MCW J16 FSD J82 RAP DLN PDT J16 KOTAA JKNOX HHOOD4 B738 4h 00m
08/27/2019 CPX444 COTON J100 DBQ J82 DBS J82 DNJ J20 PDT J16 KOTAA YENTL HHOOD4 B738 4h 16m

Route Details

Aircraft Information
Primary: Boeing 737-800BCF
Backup: Not Available
Route Data
Distance: 1457nm
Sched. Duration: 3h 45m
Avg. Duration: 4h 08m (+64m)
Times Flown: 2
Recm'd Route: DBQ MCW DPR J16 KOTAA JKNOX HHOOD4
Planned Altitude: 36,000ft
Origin Wx: KRFD 290454Z 18003KT 10SM OVC250 04/M01 A2993 RMK AO2 SLP138 T00391011
Dest. Wx: KPDX 290453Z 25003KT 10SM FEW250 09/07 A3018 RMK AO2 SLP221 T00940072
Notes:

Financial History
Total Freight: 57,552lbs
Average Load: 28,776lbs/flt
Fuel Used: 41,799lbs
Avg. Fuel Used: 20,900lbs/flt
Fuel Expense: $29,677
Avg. Fuel Expense: $14,839
Avg. Fuel Cost: $0.71/lbs
Total Gross Income: $74,242
Pilot Pay: $458
Total Expenses: $8,122
Total Revenue: $34,503
Average Revenue: $37,121.04